sensor_id;sensor_type;location;lat;lon;timestamp;P1;durP1;ratioP1;P2;durP2;ratioP2
3415;SDS011;1721;51.238;9.562;2023-10-13T00:01:56;16.37;;;6.00;;
3415;SDS011;1721;51.238;9.562;2023-10-13T00:04:24;15.07;;;6.30;;
3415;SDS011;1721;51.238;9.562;2023-10-13T00:06:54;15.80;;;6.67;;
3415;SDS011;1721;51.238;9.562;2023-10-13T00:09:24;14.83;;;6.93;;
3415;SDS011;1721;51.238;9.562;2023-10-13T00:11:56;19.98;;;6.60;;
3415;SDS011;1721;51.238;9.562;2023-10-13T00:14:22;14.20;;;6.10;;
3415;SDS011;1721;51.238;9.562;2023-10-13T00:16:55;14.47;;;5.67;;
3415;SDS011;1721;51.238;9.562;2023-10-13T00:22:03;16.30;;;6.87;;
3415;SDS011;1721;51.238;9.562;2023-10-13T00:24:34;18.17;;;6.07;;
3415;SDS011;1721;51.238;9.562;2023-10-13T00:27:07;18.95;;;6.80;;
3415;SDS011;1721;51.238;9.562;2023-10-13T00:30:02;14.90;;;6.15;;
3415;SDS011;1721;51.238;9.562;2023-10-13T00:32:50;13.77;;;6.10;;
3415;SDS011;1721;51.238;9.562;2023-10-13T00:35:20;16.83;;;6.93;;
3415;SDS011;1721;51.238;9.562;2023-10-13T00:38:01;17.83;;;6.95;;
3415;SDS011;1721;51.238;9.562;2023-10-13T00:40:43;16.60;;;6.57;;
3415;SDS011;1721;51.238;9.562;2023-10-13T00:43:16;27.38;;;6.72;;
3415;SDS011;1721;51.238;9.562;2023-10-13T00:45:43;16.33;;;6.82;;
3415;SDS011;1721;51.238;9.562;2023-10-13T00:48:13;14.48;;;6.03;;
3415;SDS011;1721;51.238;9.562;2023-10-13T00:50:39;16.13;;;6.07;;
3415;SDS011;1721;51.238;9.562;2023-10-13T00:53:06;15.32;;;6.82;;
3415;SDS011;1721;51.238;9.562;2023-10-13T00:55:33;16.20;;;7.33;;
3415;SDS011;1721;51.238;9.562;2023-10-13T00:58:01;15.23;;;6.80;;
3415;SDS011;1721;51.238;9.562;2023-10-13T01:00:31;16.50;;;6.83;;
3415;SDS011;1721;51.238;9.562;2023-10-13T01:02:57;14.73;;;7.03;;
3415;SDS011;1721;51.238;9.562;2023-10-13T01:05:30;16.83;;;7.28;;
3415;SDS011;1721;51.238;9.562;2023-10-13T01:07:59;13.73;;;7.57;;
3415;SDS011;1721;51.238;9.562;2023-10-13T01:10:26;18.13;;;6.63;;
3415;SDS011;1721;51.238;9.562;2023-10-13T01:12:55;16.53;;;7.50;;
3415;SDS011;1721;51.238;9.562;2023-10-13T01:15:21;17.17;;;7.60;;
3415;SDS011;1721;51.238;9.562;2023-10-13T01:17:47;18.70;;;6.97;;
3415;SDS011;1721;51.238;9.562;2023-10-13T01:20:13;24.33;;;8.20;;
3415;SDS011;1721;51.238;9.562;2023-10-13T01:22:50;19.40;;;7.07;;
3415;SDS011;1721;51.238;9.562;2023-10-13T01:25:22;14.60;;;7.10;;
3415;SDS011;1721;51.238;9.562;2023-10-13T01:27:53;15.93;;;7.00;;
3415;SDS011;1721;51.238;9.562;2023-10-13T01:30:20;16.03;;;6.40;;
3415;SDS011;1721;51.238;9.562;2023-10-13T01:32:52;13.70;;;6.87;;
3415;SDS011;1721;51.238;9.562;2023-10-13T01:35:19;16.17;;;7.47;;
3415;SDS011;1721;51.238;9.562;2023-10-13T01:37:50;15.63;;;7.07;;
3415;SDS011;1721;51.238;9.562;2023-10-13T01:40:16;18.93;;;7.33;;
3415;SDS011;1721;51.238;9.562;2023-10-13T01:42:48;18.10;;;7.70;;
3415;SDS011;1721;51.238;9.562;2023-10-13T01:45:20;20.10;;;6.73;;
3415;SDS011;1721;51.238;9.562;2023-10-13T01:47:46;19.27;;;7.67;;
3415;SDS011;1721;51.238;9.562;2023-10-13T01:50:11;14.63;;;7.20;;
3415;SDS011;1721;51.238;9.562;2023-10-13T01:52:45;17.63;;;7.60;;
3415;SDS011;1721;51.238;9.562;2023-10-13T01:55:11;19.40;;;6.60;;
3415;SDS011;1721;51.238;9.562;2023-10-13T01:57:39;15.10;;;6.10;;
3415;SDS011;1721;51.238;9.562;2023-10-13T02:00:07;16.67;;;7.53;;
3415;SDS011;1721;51.238;9.562;2023-10-13T02:02:44;20.40;;;7.10;;
3415;SDS011;1721;51.238;9.562;2023-10-13T02:05:15;21.38;;;7.70;;
3415;SDS011;1721;51.238;9.562;2023-10-13T02:07:42;15.57;;;7.37;;
3415;SDS011;1721;51.238;9.562;2023-10-13T02:10:10;15.30;;;7.40;;
3415;SDS011;1721;51.238;9.562;2023-10-13T02:12:38;16.50;;;7.17;;
3415;SDS011;1721;51.238;9.562;2023-10-13T02:15:08;25.77;;;7.60;;
3415;SDS011;1721;51.238;9.562;2023-10-13T02:17:37;20.23;;;7.27;;
3415;SDS011;1721;51.238;9.562;2023-10-13T02:20:06;20.53;;;6.63;;
3415;SDS011;1721;51.238;9.562;2023-10-13T02:22:39;18.70;;;6.70;;
3415;SDS011;1721;51.238;9.562;2023-10-13T02:25:13;18.43;;;6.73;;
3415;SDS011;1721;51.238;9.562;2023-10-13T02:27:59;17.50;;;6.53;;
3415;SDS011;1721;51.238;9.562;2023-10-13T02:30:25;13.40;;;6.60;;
3415;SDS011;1721;51.238;9.562;2023-10-13T02:32:51;17.10;;;7.67;;
3415;SDS011;1721;51.238;9.562;2023-10-13T02:35:18;17.37;;;6.60;;
3415;SDS011;1721;51.238;9.562;2023-10-13T02:37:45;14.83;;;5.97;;
3415;SDS011;1721;51.238;9.562;2023-10-13T02:40:19;15.53;;;7.00;;
3415;SDS011;1721;51.238;9.562;2023-10-13T02:42:48;15.57;;;6.57;;
3415;SDS011;1721;51.238;9.562;2023-10-13T02:45:14;14.40;;;6.30;;
3415;SDS011;1721;51.238;9.562;2023-10-13T02:47:40;14.83;;;6.80;;
3415;SDS011;1721;51.238;9.562;2023-10-13T02:50:09;17.00;;;6.70;;
3415;SDS011;1721;51.238;9.562;2023-10-13T02:52:36;11.35;;;6.25;;
3415;SDS011;1721;51.238;9.562;2023-10-13T02:55:06;19.27;;;6.77;;
3415;SDS011;1721;51.238;9.562;2023-10-13T02:57:35;12.77;;;5.90;;
3415;SDS011;1721;51.238;9.562;2023-10-13T03:00:01;14.50;;;5.63;;
3415;SDS011;1721;51.238;9.562;2023-10-13T03:02:37;19.43;;;7.17;;
3415;SDS011;1721;51.238;9.562;2023-10-13T03:05:23;11.43;;;5.70;;
3415;SDS011;1721;51.238;9.562;2023-10-13T03:07:48;13.33;;;5.90;;
3415;SDS011;1721;51.238;9.562;2023-10-13T03:10:15;14.33;;;6.20;;
3415;SDS011;1721;51.238;9.562;2023-10-13T03:12:44;14.15;;;6.25;;
3415;SDS011;1721;51.238;9.562;2023-10-13T03:15:13;13.90;;;6.30;;
3415;SDS011;1721;51.238;9.562;2023-10-13T03:17:55;22.63;;;6.30;;
3415;SDS011;1721;51.238;9.562;2023-10-13T03:20:23;23.53;;;7.27;;
3415;SDS011;1721;51.238;9.562;2023-10-13T03:22:55;16.33;;;5.80;;
3415;SDS011;1721;51.238;9.562;2023-10-13T03:25:21;14.60;;;5.83;;
3415;SDS011;1721;51.238;9.562;2023-10-13T03:27:54;14.55;;;6.05;;
3415;SDS011;1721;51.238;9.562;2023-10-13T03:30:20;13.80;;;6.50;;
3415;SDS011;1721;51.238;9.562;2023-10-13T03:32:47;16.37;;;5.80;;
3415;SDS011;1721;51.238;9.562;2023-10-13T03:35:19;13.37;;;5.83;;
3415;SDS011;1721;51.238;9.562;2023-10-13T03:37:56;16.87;;;6.27;;
3415;SDS011;1721;51.238;9.562;2023-10-13T03:40:22;14.40;;;6.47;;
3415;SDS011;1721;51.238;9.562;2023-10-13T03:42:48;16.70;;;5.83;;
3415;SDS011;1721;51.238;9.562;2023-10-13T03:45:29;12.85;;;5.93;;
3415;SDS011;1721;51.238;9.562;2023-10-13T03:48:01;14.60;;;6.13;;
3415;SDS011;1721;51.238;9.562;2023-10-13T03:50:33;11.90;;;6.17;;
3415;SDS011;1721;51.238;9.562;2023-10-13T03:53:11;21.23;;;6.07;;
3415;SDS011;1721;51.238;9.562;2023-10-13T03:55:38;12.90;;;5.67;;
3415;SDS011;1721;51.238;9.562;2023-10-13T03:58:04;16.70;;;6.33;;
3415;SDS011;1721;51.238;9.562;2023-10-13T04:00:30;12.47;;;5.20;;
3415;SDS011;1721;51.238;9.562;2023-10-13T04:02:56;14.53;;;5.47;;
3415;SDS011;1721;51.238;9.562;2023-10-13T04:05:31;9.63;;;4.65;;
3415;SDS011;1721;51.238;9.562;2023-10-13T04:08:06;15.30;;;5.73;;
3415;SDS011;1721;51.238;9.562;2023-10-13T04:10:54;11.60;;;5.47;;
3415;SDS011;1721;51.238;9.562;2023-10-13T04:13:21;10.30;;;4.60;;
3415;SDS011;1721;51.238;9.562;2023-10-13T04:16:06;9.90;;;5.03;;
3415;SDS011;1721;51.238;9.562;2023-10-13T04:18:48;30.27;;;11.90;;
3415;SDS011;1721;51.238;9.562;2023-10-13T04:21:19;15.63;;;5.50;;
3415;SDS011;1721;51.238;9.562;2023-10-13T04:24:07;10.00;;;4.60;;
3415;SDS011;1721;51.238;9.562;2023-10-13T04:26:42;13.73;;;5.43;;
3415;SDS011;1721;51.238;9.562;2023-10-13T04:29:28;11.50;;;5.17;;
3415;SDS011;1721;51.238;9.562;2023-10-13T04:32:12;11.13;;;4.50;;
3415;SDS011;1721;51.238;9.562;2023-10-13T04:34:43;11.03;;;5.20;;
3415;SDS011;1721;51.238;9.562;2023-10-13T04:37:12;12.93;;;5.30;;
3415;SDS011;1721;51.238;9.562;2023-10-13T04:40:13;10.30;;;5.05;;
3415;SDS011;1721;51.238;9.562;2023-10-13T04:42:39;11.40;;;4.47;;
3415;SDS011;1721;51.238;9.562;2023-10-13T04:45:29;13.47;;;4.83;;
3415;SDS011;1721;51.238;9.562;2023-10-13T04:47:57;8.63;;;4.10;;
3415;SDS011;1721;51.238;9.562;2023-10-13T04:50:44;10.83;;;3.40;;
3415;SDS011;1721;51.238;9.562;2023-10-13T04:53:16;14.23;;;5.00;;
3415;SDS011;1721;51.238;9.562;2023-10-13T04:55:59;11.07;;;4.53;;
3415;SDS011;1721;51.238;9.562;2023-10-13T04:58:30;11.07;;;5.27;;
3415;SDS011;1721;51.238;9.562;2023-10-13T05:01:02;8.40;;;4.00;;
3415;SDS011;1721;51.238;9.562;2023-10-13T05:03:46;15.00;;;4.40;;
3415;SDS011;1721;51.238;9.562;2023-10-13T05:06:31;12.73;;;4.30;;
3415;SDS011;1721;51.238;9.562;2023-10-13T05:09:09;11.23;;;5.00;;
3415;SDS011;1721;51.238;9.562;2023-10-13T05:11:54;11.80;;;4.77;;
3415;SDS011;1721;51.238;9.562;2023-10-13T05:14:38;11.57;;;4.07;;
3415;SDS011;1721;51.238;9.562;2023-10-13T05:17:42;13.00;;;4.40;;
3415;SDS011;1721;51.238;9.562;2023-10-13T05:20:26;13.37;;;5.20;;
3415;SDS011;1721;51.238;9.562;2023-10-13T05:23:11;8.10;;;4.00;;
3415;SDS011;1721;51.238;9.562;2023-10-13T05:25:55;10.50;;;4.37;;
3415;SDS011;1721;51.238;9.562;2023-10-13T05:28:39;11.70;;;4.40;;
3415;SDS011;1721;51.238;9.562;2023-10-13T05:31:23;13.33;;;4.30;;
3415;SDS011;1721;51.238;9.562;2023-10-13T05:34:07;9.60;;;4.20;;
3415;SDS011;1721;51.238;9.562;2023-10-13T05:36:52;17.40;;;4.50;;
3415;SDS011;1721;51.238;9.562;2023-10-13T05:39:36;16.10;;;4.87;;
3415;SDS011;1721;51.238;9.562;2023-10-13T05:42:20;12.80;;;4.40;;
3415;SDS011;1721;51.238;9.562;2023-10-13T05:45:05;11.03;;;3.97;;
3415;SDS011;1721;51.238;9.562;2023-10-13T05:47:42;10.77;;;3.70;;
3415;SDS011;1721;51.238;9.562;2023-10-13T05:50:11;9.67;;;3.33;;
3415;SDS011;1721;51.238;9.562;2023-10-13T05:52:53;14.07;;;4.40;;
3415;SDS011;1721;51.238;9.562;2023-10-13T05:55:25;16.10;;;4.60;;
3415;SDS011;1721;51.238;9.562;2023-10-13T05:58:10;23.97;;;7.90;;
3415;SDS011;1721;51.238;9.562;2023-10-13T06:00:55;10.10;;;4.00;;
3415;SDS011;1721;51.238;9.562;2023-10-13T06:03:39;14.60;;;4.60;;
3415;SDS011;1721;51.238;9.562;2023-10-13T06:06:24;14.30;;;4.57;;
3415;SDS011;1721;51.238;9.562;2023-10-13T06:09:08;11.60;;;4.60;;
3415;SDS011;1721;51.238;9.562;2023-10-13T06:12:05;9.70;;;4.17;;
3415;SDS011;1721;51.238;9.562;2023-10-13T06:14:50;10.33;;;4.07;;
3415;SDS011;1721;51.238;9.562;2023-10-13T06:17:34;9.87;;;4.20;;
3415;SDS011;1721;51.238;9.562;2023-10-13T06:20:18;17.73;;;4.60;;
3415;SDS011;1721;51.238;9.562;2023-10-13T06:23:02;10.80;;;3.97;;
3415;SDS011;1721;51.238;9.562;2023-10-13T06:25:50;9.53;;;3.80;;
3415;SDS011;1721;51.238;9.562;2023-10-13T06:28:36;8.27;;;4.43;;
3415;SDS011;1721;51.238;9.562;2023-10-13T06:31:07;9.20;;;3.47;;
3415;SDS011;1721;51.238;9.562;2023-10-13T06:33:38;17.33;;;4.60;;
3415;SDS011;1721;51.238;9.562;2023-10-13T06:36:10;11.40;;;4.53;;
3415;SDS011;1721;51.238;9.562;2023-10-13T06:38:36;11.80;;;4.00;;
3415;SDS011;1721;51.238;9.562;2023-10-13T06:41:03;10.30;;;3.83;;
3415;SDS011;1721;51.238;9.562;2023-10-13T06:43:32;11.13;;;4.10;;
3415;SDS011;1721;51.238;9.562;2023-10-13T06:46:08;11.53;;;4.43;;
3415;SDS011;1721;51.238;9.562;2023-10-13T06:48:40;11.70;;;4.50;;
3415;SDS011;1721;51.238;9.562;2023-10-13T06:51:06;12.27;;;4.43;;
3415;SDS011;1721;51.238;9.562;2023-10-13T06:53:48;10.80;;;4.07;;
3415;SDS011;1721;51.238;9.562;2023-10-13T06:56:14;16.17;;;4.83;;
3415;SDS011;1721;51.238;9.562;2023-10-13T06:58:47;17.37;;;4.77;;
3415;SDS011;1721;51.238;9.562;2023-10-13T07:01:12;11.83;;;4.40;;
3415;SDS011;1721;51.238;9.562;2023-10-13T07:03:40;14.20;;;4.63;;
3415;SDS011;1721;51.238;9.562;2023-10-13T07:06:07;13.00;;;4.60;;
3415;SDS011;1721;51.238;9.562;2023-10-13T07:08:37;11.67;;;4.23;;
3415;SDS011;1721;51.238;9.562;2023-10-13T07:11:02;13.73;;;3.93;;
3415;SDS011;1721;51.238;9.562;2023-10-13T07:13:33;11.60;;;4.77;;
3415;SDS011;1721;51.238;9.562;2023-10-13T07:16:03;8.67;;;3.77;;
3415;SDS011;1721;51.238;9.562;2023-10-13T07:18:38;15.43;;;4.90;;
3415;SDS011;1721;51.238;9.562;2023-10-13T07:21:14;15.23;;;5.00;;
3415;SDS011;1721;51.238;9.562;2023-10-13T07:23:49;10.40;;;4.60;;
3415;SDS011;1721;51.238;9.562;2023-10-13T07:26:25;12.23;;;3.67;;
3415;SDS011;1721;51.238;9.562;2023-10-13T07:28:52;13.70;;;4.10;;
3415;SDS011;1721;51.238;9.562;2023-10-13T07:31:17;12.33;;;4.47;;
3415;SDS011;1721;51.238;9.562;2023-10-13T07:33:45;10.00;;;3.97;;
3415;SDS011;1721;51.238;9.562;2023-10-13T07:36:12;10.53;;;4.17;;
3415;SDS011;1721;51.238;9.562;2023-10-13T07:39:00;15.90;;;4.30;;
3415;SDS011;1721;51.238;9.562;2023-10-13T07:41:45;11.20;;;4.20;;
3415;SDS011;1721;51.238;9.562;2023-10-13T07:44:28;11.83;;;3.80;;
3415;SDS011;1721;51.238;9.562;2023-10-13T07:46:58;10.30;;;3.90;;
3415;SDS011;1721;51.238;9.562;2023-10-13T07:49:29;14.63;;;4.63;;
3415;SDS011;1721;51.238;9.562;2023-10-13T07:51:59;16.03;;;3.97;;
3415;SDS011;1721;51.238;9.562;2023-10-13T07:54:32;9.30;;;3.87;;
3415;SDS011;1721;51.238;9.562;2023-10-13T07:56:57;11.50;;;3.80;;
3415;SDS011;1721;51.238;9.562;2023-10-13T07:59:23;8.63;;;3.47;;
3415;SDS011;1721;51.238;9.562;2023-10-13T08:01:49;19.33;;;5.70;;
3415;SDS011;1721;51.238;9.562;2023-10-13T08:04:34;12.97;;;3.77;;
3415;SDS011;1721;51.238;9.562;2023-10-13T08:07:01;13.07;;;3.30;;
3415;SDS011;1721;51.238;9.562;2023-10-13T08:09:37;10.33;;;3.70;;
3415;SDS011;1721;51.238;9.562;2023-10-13T08:12:08;14.53;;;4.10;;
3415;SDS011;1721;51.238;9.562;2023-10-13T08:14:37;20.13;;;5.60;;
3415;SDS011;1721;51.238;9.562;2023-10-13T08:17:05;13.70;;;4.13;;
3415;SDS011;1721;51.238;9.562;2023-10-13T08:19:33;8.83;;;3.50;;
3415;SDS011;1721;51.238;9.562;2023-10-13T08:22:07;18.43;;;4.10;;
3415;SDS011;1721;51.238;9.562;2023-10-13T08:24:43;12.17;;;4.10;;
3415;SDS011;1721;51.238;9.562;2023-10-13T08:27:13;15.33;;;3.77;;
3415;SDS011;1721;51.238;9.562;2023-10-13T08:29:39;13.80;;;4.47;;
3415;SDS011;1721;51.238;9.562;2023-10-13T08:32:24;14.00;;;4.17;;
3415;SDS011;1721;51.238;9.562;2023-10-13T08:34:53;10.77;;;4.47;;
3415;SDS011;1721;51.238;9.562;2023-10-13T08:37:23;12.93;;;3.43;;
3415;SDS011;1721;51.238;9.562;2023-10-13T08:39:49;15.30;;;3.63;;
3415;SDS011;1721;51.238;9.562;2023-10-13T08:42:35;12.93;;;4.17;;
3415;SDS011;1721;51.238;9.562;2023-10-13T08:45:14;11.23;;;4.03;;
3415;SDS011;1721;51.238;9.562;2023-10-13T08:47:59;12.33;;;3.97;;
3415;SDS011;1721;51.238;9.562;2023-10-13T08:50:38;9.53;;;4.23;;
3415;SDS011;1721;51.238;9.562;2023-10-13T08:53:17;12.20;;;3.60;;
3415;SDS011;1721;51.238;9.562;2023-10-13T08:56:08;19.40;;;4.40;;
3415;SDS011;1721;51.238;9.562;2023-10-13T08:58:48;14.87;;;4.40;;
3415;SDS011;1721;51.238;9.562;2023-10-13T09:01:31;19.03;;;4.73;;
3415;SDS011;1721;51.238;9.562;2023-10-13T09:03:58;14.87;;;4.20;;
3415;SDS011;1721;51.238;9.562;2023-10-13T09:14:55;14.43;;;4.13;;
3415;SDS011;1721;51.238;9.562;2023-10-13T09:17:30;15.83;;;3.63;;
3415;SDS011;1721;51.238;9.562;2023-10-13T09:19:59;10.43;;;3.40;;
3415;SDS011;1721;51.238;9.562;2023-10-13T09:22:36;17.60;;;4.43;;
3415;SDS011;1721;51.238;9.562;2023-10-13T09:25:02;9.27;;;3.90;;
3415;SDS011;1721;51.238;9.562;2023-10-13T09:27:38;12.10;;;3.73;;
3415;SDS011;1721;51.238;9.562;2023-10-13T09:30:04;18.40;;;4.03;;
3415;SDS011;1721;51.238;9.562;2023-10-13T09:32:43;14.70;;;4.47;;
3415;SDS011;1721;51.238;9.562;2023-10-13T09:35:17;12.40;;;3.50;;
3415;SDS011;1721;51.238;9.562;2023-10-13T09:37:44;8.20;;;3.67;;
3415;SDS011;1721;51.238;9.562;2023-10-13T09:40:17;18.87;;;4.73;;
3415;SDS011;1721;51.238;9.562;2023-10-13T09:43:12;7.77;;;3.07;;
3415;SDS011;1721;51.238;9.562;2023-10-13T09:45:43;15.90;;;4.30;;
3415;SDS011;1721;51.238;9.562;2023-10-13T09:48:30;11.97;;;3.50;;
3415;SDS011;1721;51.238;9.562;2023-10-13T09:51:01;12.70;;;3.70;;
3415;SDS011;1721;51.238;9.562;2023-10-13T09:53:30;17.40;;;3.97;;
3415;SDS011;1721;51.238;9.562;2023-10-13T09:58:37;11.77;;;3.50;;
3415;SDS011;1721;51.238;9.562;2023-10-13T10:01:12;18.00;;;3.00;;
3415;SDS011;1721;51.238;9.562;2023-10-13T10:03:48;12.93;;;3.37;;
3415;SDS011;1721;51.238;9.562;2023-10-13T10:06:32;12.10;;;4.00;;
3415;SDS011;1721;51.238;9.562;2023-10-13T10:09:05;10.63;;;3.47;;
3415;SDS011;1721;51.238;9.562;2023-10-13T10:11:58;13.20;;;4.10;;
3415;SDS011;1721;51.238;9.562;2023-10-13T10:17:21;11.50;;;4.00;;
3415;SDS011;1721;51.238;9.562;2023-10-13T10:19:48;10.90;;;3.10;;
3415;SDS011;1721;51.238;9.562;2023-10-13T10:22:28;11.50;;;3.60;;
3415;SDS011;1721;51.238;9.562;2023-10-13T10:25:04;16.07;;;3.70;;
3415;SDS011;1721;51.238;9.562;2023-10-13T10:27:56;14.30;;;4.37;;
3415;SDS011;1721;51.238;9.562;2023-10-13T10:30:33;11.20;;;3.10;;
3415;SDS011;1721;51.238;9.562;2023-10-13T10:33:00;9.93;;;3.50;;
3415;SDS011;1721;51.238;9.562;2023-10-13T10:35:33;13.70;;;3.93;;
3415;SDS011;1721;51.238;9.562;2023-10-13T10:38:09;11.73;;;3.70;;
3415;SDS011;1721;51.238;9.562;2023-10-13T10:40:49;20.10;;;4.37;;
3415;SDS011;1721;51.238;9.562;2023-10-13T10:43:22;12.60;;;4.23;;
3415;SDS011;1721;51.238;9.562;2023-10-13T10:45:51;13.07;;;4.50;;
3415;SDS011;1721;51.238;9.562;2023-10-13T10:48:18;11.47;;;3.80;;
3415;SDS011;1721;51.238;9.562;2023-10-13T10:50:51;10.90;;;3.80;;
3415;SDS011;1721;51.238;9.562;2023-10-13T10:53:22;18.50;;;4.50;;
3415;SDS011;1721;51.238;9.562;2023-10-13T10:56:07;7.13;;;2.90;;
3415;SDS011;1721;51.238;9.562;2023-10-13T10:58:45;12.33;;;3.90;;
3415;SDS011;1721;51.238;9.562;2023-10-13T11:01:11;11.87;;;4.00;;
3415;SDS011;1721;51.238;9.562;2023-10-13T11:03:52;13.03;;;4.40;;
3415;SDS011;1721;51.238;9.562;2023-10-13T11:06:25;12.57;;;3.87;;
3415;SDS011;1721;51.238;9.562;2023-10-13T11:09:52;10.90;;;3.93;;
3415;SDS011;1721;51.238;9.562;2023-10-13T11:11:56;10.67;;;4.30;;
3415;SDS011;1721;51.238;9.562;2023-10-13T11:14:40;15.37;;;5.00;;
3415;SDS011;1721;51.238;9.562;2023-10-13T11:17:07;13.40;;;4.60;;
3415;SDS011;1721;51.238;9.562;2023-10-13T11:19:45;14.13;;;3.73;;
3415;SDS011;1721;51.238;9.562;2023-10-13T11:24:39;10.53;;;5.10;;
3415;SDS011;1721;51.238;9.562;2023-10-13T11:27:13;9.60;;;4.03;;
3415;SDS011;1721;51.238;9.562;2023-10-13T11:29:46;13.00;;;4.70;;
3415;SDS011;1721;51.238;9.562;2023-10-13T11:32:17;12.53;;;4.00;;
3415;SDS011;1721;51.238;9.562;2023-10-13T11:34:45;12.60;;;4.60;;
3415;SDS011;1721;51.238;9.562;2023-10-13T11:37:16;13.10;;;4.77;;
3415;SDS011;1721;51.238;9.562;2023-10-13T11:40:02;12.03;;;3.53;;
3415;SDS011;1721;51.238;9.562;2023-10-13T11:42:35;20.93;;;5.03;;
3415;SDS011;1721;51.238;9.562;2023-10-13T11:45:01;10.10;;;4.17;;
3415;SDS011;1721;51.238;9.562;2023-10-13T11:47:45;12.10;;;3.80;;
3415;SDS011;1721;51.238;9.562;2023-10-13T11:50:23;15.33;;;5.00;;
3415;SDS011;1721;51.238;9.562;2023-10-13T11:52:57;17.10;;;4.50;;
3415;SDS011;1721;51.238;9.562;2023-10-13T11:55:22;13.33;;;4.40;;
3415;SDS011;1721;51.238;9.562;2023-10-13T11:57:49;16.37;;;4.43;;
3415;SDS011;1721;51.238;9.562;2023-10-13T12:00:14;18.47;;;4.43;;
3415;SDS011;1721;51.238;9.562;2023-10-13T12:03:09;8.67;;;4.20;;
3415;SDS011;1721;51.238;9.562;2023-10-13T12:05:54;8.80;;;3.80;;
3415;SDS011;1721;51.238;9.562;2023-10-13T12:08:38;13.70;;;4.93;;
3415;SDS011;1721;51.238;9.562;2023-10-13T12:11:14;12.23;;;4.43;;
3415;SDS011;1721;51.238;9.562;2023-10-13T12:13:55;13.23;;;5.40;;
3415;SDS011;1721;51.238;9.562;2023-10-13T12:16:21;11.37;;;4.83;;
3415;SDS011;1721;51.238;9.562;2023-10-13T12:18:47;12.63;;;4.07;;
3415;SDS011;1721;51.238;9.562;2023-10-13T12:21:18;12.17;;;4.70;;
3415;SDS011;1721;51.238;9.562;2023-10-13T12:23:46;12.27;;;4.13;;
3415;SDS011;1721;51.238;9.562;2023-10-13T12:26:12;12.30;;;5.27;;
3415;SDS011;1721;51.238;9.562;2023-10-13T12:28:57;12.67;;;4.30;;
3415;SDS011;1721;51.238;9.562;2023-10-13T12:31:31;11.63;;;4.40;;
3415;SDS011;1721;51.238;9.562;2023-10-13T12:33:58;10.00;;;4.27;;
3415;SDS011;1721;51.238;9.562;2023-10-13T12:36:31;16.27;;;7.80;;
3415;SDS011;1721;51.238;9.562;2023-10-13T12:39:06;11.30;;;4.90;;
3415;SDS011;1721;51.238;9.562;2023-10-13T12:41:32;14.20;;;4.93;;
3415;SDS011;1721;51.238;9.562;2023-10-13T12:44:16;20.37;;;4.10;;
3415;SDS011;1721;51.238;9.562;2023-10-13T12:47:00;12.77;;;5.07;;
3415;SDS011;1721;51.238;9.562;2023-10-13T12:49:44;10.80;;;4.90;;
3415;SDS011;1721;51.238;9.562;2023-10-13T12:52:10;12.33;;;4.50;;
3415;SDS011;1721;51.238;9.562;2023-10-13T12:54:45;12.57;;;5.40;;
3415;SDS011;1721;51.238;9.562;2023-10-13T12:57:21;10.50;;;3.97;;
3415;SDS011;1721;51.238;9.562;2023-10-13T12:59:48;10.60;;;4.90;;
3415;SDS011;1721;51.238;9.562;2023-10-13T13:02:14;13.07;;;4.87;;
3415;SDS011;1721;51.238;9.562;2023-10-13T13:04:40;15.67;;;5.37;;
3415;SDS011;1721;51.238;9.562;2023-10-13T13:07:09;14.03;;;4.90;;
3415;SDS011;1721;51.238;9.562;2023-10-13T13:09:39;15.47;;;5.47;;
3415;SDS011;1721;51.238;9.562;2023-10-13T13:12:05;10.90;;;3.97;;
3415;SDS011;1721;51.238;9.562;2023-10-13T13:14:31;8.90;;;4.30;;
3415;SDS011;1721;51.238;9.562;2023-10-13T13:16:59;13.13;;;4.43;;
3415;SDS011;1721;51.238;9.562;2023-10-13T13:19:32;10.90;;;5.03;;
3415;SDS011;1721;51.238;9.562;2023-10-13T13:22:03;12.33;;;4.57;;
3415;SDS011;1721;51.238;9.562;2023-10-13T13:24:30;9.13;;;4.33;;
3415;SDS011;1721;51.238;9.562;2023-10-13T13:26:56;16.17;;;4.50;;
3415;SDS011;1721;51.238;9.562;2023-10-13T13:29:27;12.50;;;4.80;;
3415;SDS011;1721;51.238;9.562;2023-10-13T13:31:54;13.83;;;5.53;;
3415;SDS011;1721;51.238;9.562;2023-10-13T13:34:20;14.90;;;5.60;;
3415;SDS011;1721;51.238;9.562;2023-10-13T13:36:46;13.30;;;5.53;;
3415;SDS011;1721;51.238;9.562;2023-10-13T13:39:17;10.67;;;5.07;;
3415;SDS011;1721;51.238;9.562;2023-10-13T13:41:53;21.20;;;6.37;;
3415;SDS011;1721;51.238;9.562;2023-10-13T13:44:24;11.40;;;4.73;;
3415;SDS011;1721;51.238;9.562;2023-10-13T13:47:00;9.97;;;4.83;;
3415;SDS011;1721;51.238;9.562;2023-10-13T13:49:36;13.20;;;4.97;;
3415;SDS011;1721;51.238;9.562;2023-10-13T13:52:05;10.73;;;4.80;;
3415;SDS011;1721;51.238;9.562;2023-10-13T13:54:34;17.87;;;4.90;;
3415;SDS011;1721;51.238;9.562;2023-10-13T13:57:00;10.60;;;4.30;;
3415;SDS011;1721;51.238;9.562;2023-10-13T13:59:26;12.93;;;4.50;;
3415;SDS011;1721;51.238;9.562;2023-10-13T14:01:51;12.57;;;5.53;;
3415;SDS011;1721;51.238;9.562;2023-10-13T14:04:18;17.10;;;5.30;;
3415;SDS011;1721;51.238;9.562;2023-10-13T14:06:44;18.83;;;4.60;;
3415;SDS011;1721;51.238;9.562;2023-10-13T14:09:10;17.30;;;4.80;;
3415;SDS011;1721;51.238;9.562;2023-10-13T14:11:58;13.73;;;5.80;;
3415;SDS011;1721;51.238;9.562;2023-10-13T14:14:42;10.60;;;4.40;;
3415;SDS011;1721;51.238;9.562;2023-10-13T14:17:37;14.27;;;5.57;;
3415;SDS011;1721;51.238;9.562;2023-10-13T14:20:07;15.60;;;5.60;;
3415;SDS011;1721;51.238;9.562;2023-10-13T14:22:40;14.40;;;4.97;;
3415;SDS011;1721;51.238;9.562;2023-10-13T14:25:06;10.23;;;4.30;;
3415;SDS011;1721;51.238;9.562;2023-10-13T14:27:34;12.30;;;4.40;;
3415;SDS011;1721;51.238;9.562;2023-10-13T14:30:01;12.53;;;5.07;;
3415;SDS011;1721;51.238;9.562;2023-10-13T14:32:27;13.20;;;4.40;;
3415;SDS011;1721;51.238;9.562;2023-10-13T14:34:53;12.80;;;5.13;;
3415;SDS011;1721;51.238;9.562;2023-10-13T14:37:21;14.00;;;5.30;;
3415;SDS011;1721;51.238;9.562;2023-10-13T14:39:55;11.50;;;4.23;;
3415;SDS011;1721;51.238;9.562;2023-10-13T14:42:23;10.27;;;5.40;;
3415;SDS011;1721;51.238;9.562;2023-10-13T14:44:49;9.93;;;4.73;;
3415;SDS011;1721;51.238;9.562;2023-10-13T14:47:21;8.63;;;4.07;;
3415;SDS011;1721;51.238;9.562;2023-10-13T14:49:50;12.17;;;4.67;;
3415;SDS011;1721;51.238;9.562;2023-10-13T14:52:19;16.57;;;4.47;;
3415;SDS011;1721;51.238;9.562;2023-10-13T14:54:46;13.33;;;4.50;;
3415;SDS011;1721;51.238;9.562;2023-10-13T14:57:13;8.80;;;4.60;;
3415;SDS011;1721;51.238;9.562;2023-10-13T14:59:38;12.53;;;4.83;;
3415;SDS011;1721;51.238;9.562;2023-10-13T15:02:04;11.07;;;4.37;;
3415;SDS011;1721;51.238;9.562;2023-10-13T15:04:29;16.20;;;4.40;;
3415;SDS011;1721;51.238;9.562;2023-10-13T15:06:59;10.30;;;4.30;;
3415;SDS011;1721;51.238;9.562;2023-10-13T15:09:27;11.27;;;4.43;;
3415;SDS011;1721;51.238;9.562;2023-10-13T15:11:53;14.20;;;5.47;;
3415;SDS011;1721;51.238;9.562;2023-10-13T15:14:19;14.60;;;4.87;;
3415;SDS011;1721;51.238;9.562;2023-10-13T15:16:48;15.03;;;4.37;;
3415;SDS011;1721;51.238;9.562;2023-10-13T15:19:14;15.33;;;5.20;;
3415;SDS011;1721;51.238;9.562;2023-10-13T15:21:41;12.30;;;4.60;;
3415;SDS011;1721;51.238;9.562;2023-10-13T15:24:08;8.43;;;4.33;;
3415;SDS011;1721;51.238;9.562;2023-10-13T15:26:44;9.10;;;4.00;;
3415;SDS011;1721;51.238;9.562;2023-10-13T15:29:14;17.27;;;4.80;;
3415;SDS011;1721;51.238;9.562;2023-10-13T15:31:43;11.10;;;4.47;;
3415;SDS011;1721;51.238;9.562;2023-10-13T15:34:25;11.07;;;4.10;;
3415;SDS011;1721;51.238;9.562;2023-10-13T15:36:54;12.80;;;4.27;;
3415;SDS011;1721;51.238;9.562;2023-10-13T15:39:24;16.83;;;4.17;;
3415;SDS011;1721;51.238;9.562;2023-10-13T15:41:53;11.70;;;4.00;;
3415;SDS011;1721;51.238;9.562;2023-10-13T15:44:23;10.27;;;4.60;;
3415;SDS011;1721;51.238;9.562;2023-10-13T15:46:52;12.73;;;4.00;;
3415;SDS011;1721;51.238;9.562;2023-10-13T15:49:19;13.90;;;5.87;;
3415;SDS011;1721;51.238;9.562;2023-10-13T15:51:45;12.80;;;3.87;;
3415;SDS011;1721;51.238;9.562;2023-10-13T15:54:11;11.77;;;4.30;;
3415;SDS011;1721;51.238;9.562;2023-10-13T15:56:43;11.37;;;4.20;;
3415;SDS011;1721;51.238;9.562;2023-10-13T15:59:10;8.00;;;3.10;;